^^
Station Historical Data
Daily Summary for August 10, 2018 Units:  Metric    English   Both
« Previous Day
Next Day »
Daily Weekly Monthly Yearly Custom
  High: Low: Average:
Temperature: -17.8 °C 10.2 °C 18.8 °C
Dew Point: -17.8 °C 5.5 °C 7.1 °C
Humidity: Humidity % 29 % 49 %
Wind Speed: 0 km/h 0 km/h 11.9 km/h
Wind Gust: 0 km/h - -
Wind:- - SE
Pressure: 0 hPa 1015.1 hPa -
Precipitation: 0 mm    
Historical Graphs
 
 
Tabular Data for August 10, 2018
Time Temperature Dew Point Pressure Wind Wind Speed Wind Gust Humidity Rainfall Rate (Hourly)
-17.8 °C -17.8 °C 0 hPa Calm     Humidity % 0 mm
00:04 14.4 °C 6 °C 1019.2 hPa SW 9.7 km/h 12.9 km/h 57 % 0 mm
00:09 14.4 °C 6 °C 1019.2 hPa SSW 11.1 km/h 12.9 km/h 57 % 0 mm
00:14 14.3 °C 5.9 °C 1019.2 hPa SW 6.4 km/h 14.5 km/h 57 % 0 mm
00:19 14.3 °C 5.9 °C 1019.2 hPa WSW 14.3 km/h 14.5 km/h 57 % 0 mm
00:24 14.4 °C 6 °C 1019.2 hPa SW 11.1 km/h 16.1 km/h 57 % 0 mm
00:29 14.1 °C 6 °C 1019.2 hPa SSW 11.1 km/h 12.9 km/h 58 % 0 mm
00:34 13.9 °C 5.8 °C 1019.2 hPa SSW 6.4 km/h 14.5 km/h 58 % 0 mm
00:39 13.8 °C 6.2 °C 1019.2 hPa SW 13 km/h 16.1 km/h 60 % 0 mm
00:44 13.8 °C 6.2 °C 1019.2 hPa SW 13 km/h 16.1 km/h 60 % 0 mm
00:49 13.8 °C 6.2 °C 1019.2 hPa SSW 14.3 km/h 17.7 km/h 60 % 0 mm
00:54 13.6 °C 6.2 °C 1019.2 hPa West 11.1 km/h 14.5 km/h 61 % 0 mm
00:59 13.7 °C 6.3 °C 1019.2 hPa SSE 7.9 km/h 16.1 km/h 61 % 0 mm
01:04 13.3 °C 6.4 °C 1019.2 hPa SSW 11.1 km/h 14.5 km/h 63 % 0 mm
01:09 13.3 °C 6.2 °C 1019.2 hPa SW 13 km/h 19.3 km/h 62 % 0 mm
01:14 13.4 °C 6 °C 1019.2 hPa WSW 13 km/h 16.1 km/h 61 % 0 mm
01:19 13.3 °C 6.4 °C 1018.8 hPa SW 9.7 km/h 16.1 km/h 63 % 0 mm
01:24 13.2 °C 6.1 °C 1018.8 hPa SW 13 km/h 14.5 km/h 62 % 0 mm
01:29 13.2 °C 6.3 °C 1018.8 hPa South 7.9 km/h 16.1 km/h 63 % 0 mm
01:34 13.1 °C 6.4 °C 1018.8 hPa South 9.7 km/h 16.1 km/h 64 % 0 mm
01:39 13.4 °C 6.3 °C 1018.8 hPa SW 13 km/h 14.5 km/h 62 % 0 mm
01:44 13.7 °C 6.5 °C 1018.8 hPa SSW 7.9 km/h 12.9 km/h 62 % 0 mm
01:49 13.7 °C 6.3 °C 1018.8 hPa SW 7.9 km/h 9.7 km/h 61 % 0 mm
01:54 13.6 °C 6.5 °C 1018.8 hPa SE 4.7 km/h 9.7 km/h 62 % 0 mm
01:59 13.5 °C 6.6 °C 1018.8 hPa SSW 9.7 km/h 11.3 km/h 63 % 0 mm
02:04 13.4 °C 6.5 °C 1018.8 hPa SW 6.4 km/h 12.9 km/h 63 % 0 mm
02:09 13 °C 6.6 °C 1018.8 hPa SSE 6.4 km/h 14.5 km/h 65 % 0 mm
02:14 12.8 °C 6.6 °C 1018.8 hPa SW 11.1 km/h 14.5 km/h 66 % 0 mm
02:19 12.8 °C 6.8 °C 1018.8 hPa SSW 11.1 km/h 17.7 km/h 67 % 0 mm
02:24 12.7 °C 6.7 °C 1018.5 hPa WSW 9.7 km/h 16.1 km/h 67 % 0 mm
02:29 12.8 °C 6.6 °C 1018.5 hPa SW 11.1 km/h 14.5 km/h 66 % 0 mm
02:34 12.9 °C 6.5 °C 1018.5 hPa WSW 14.3 km/h 14.5 km/h 65 % 0 mm
02:39 13.1 °C 6.4 °C 1018.5 hPa SW 11.1 km/h 16.1 km/h 64 % 0 mm
02:44 13 °C 6.8 °C 1018.5 hPa South 9.7 km/h 16.1 km/h 66 % 0 mm
02:49 12.7 °C 6.7 °C 1018.5 hPa SSW 11.1 km/h 17.7 km/h 67 % 0 mm
02:54 12.6 °C 6.6 °C 1018.5 hPa SW 14.3 km/h 16.1 km/h 67 % 0 mm
02:59 12.6 °C 6.6 °C 1018.5 hPa SSE 11.1 km/h 16.1 km/h 67 % 0 mm
03:04 12.6 °C 6.6 °C 1018.5 hPa SSW 7.9 km/h 12.9 km/h 67 % 0 mm
03:09 12.6 °C 6.6 °C 1018.2 hPa SW 13 km/h 12.9 km/h 67 % 0 mm
03:14 12.4 °C 6.7 °C 1018.5 hPa SW 7.9 km/h 12.9 km/h 68 % 0 mm
03:19 12.3 °C 6.8 °C 1018.5 hPa SSW 7.9 km/h 12.9 km/h 69 % 0 mm
03:24 12.3 °C 6.8 °C 1018.2 hPa SSW 9.7 km/h 12.9 km/h 69 % 0 mm
03:29 12.4 °C 6.7 °C 1018.2 hPa SW 7.9 km/h 12.9 km/h 68 % 0 mm
03:34 12.4 °C 6.7 °C 1018.2 hPa SW 9.7 km/h 12.9 km/h 68 % 0 mm
03:39 12.5 °C 6.8 °C 1018.2 hPa SSW 6.4 km/h 8 km/h 68 % 0 mm
03:44 12.6 °C 6.6 °C 1018.2 hPa South 11.1 km/h 12.9 km/h 67 % 0 mm
03:49 12.4 °C 6.7 °C 1018.5 hPa South 4.7 km/h 9.7 km/h 68 % 0 mm
03:54 12.3 °C 6.3 °C 1018.5 hPa SSW 7.9 km/h 11.3 km/h 67 % 0 mm
03:59 12.3 °C 6.6 °C 1018.5 hPa SE 6.4 km/h 11.3 km/h 68 % 0 mm
04:04 12.4 °C 6.4 °C 1018.5 hPa SSW 11.1 km/h 14.5 km/h 67 % 0 mm
04:09 12.5 °C 6.5 °C 1018.5 hPa SW 16.3 km/h 16.1 km/h 67 % 0 mm
04:14 12.5 °C 6.5 °C 1018.5 hPa SSE 11.1 km/h 14.5 km/h 67 % 0 mm
04:19 12.2 °C 6.5 °C 1018.2 hPa SSE 17.7 km/h 17.7 km/h 68 % 0 mm
04:24 11.9 °C 6.4 °C 1018.2 hPa WNW 11.1 km/h 19.3 km/h 69 % 0 mm
04:29 11.8 °C 6.3 °C 1018.5 hPa SSW 16.3 km/h 19.3 km/h 69 % 0 mm
04:34 11.8 °C 6.3 °C 1018.5 hPa SSW 9.7 km/h 14.5 km/h 69 % 0 mm
04:39 11.9 °C 6.4 °C 1018.5 hPa SSW 14.3 km/h 19.3 km/h 69 % 0 mm
04:44 11.7 °C 6.4 °C 1018.5 hPa South 16.3 km/h 19.3 km/h 70 % 0 mm
04:49 11.6 °C 6.5 °C 1018.5 hPa SSW 13 km/h 19.3 km/h 71 % 0 mm
04:54 11.4 °C 6.5 °C 1018.5 hPa SW 17.7 km/h 19.3 km/h 72 % 0 mm
04:59 11.1 °C 6.4 °C 1018.2 hPa SSW 14.3 km/h 20.9 km/h 73 % 0 mm
05:04 10.9 °C 6.3 °C 1018.2 hPa SW 16.3 km/h 22.5 km/h 73 % 0 mm
05:09 11 °C 6.1 °C 1018.5 hPa SW 17.7 km/h 19.3 km/h 72 % 0 mm
05:14 10.7 °C 6.3 °C 1018.5 hPa SSW 13 km/h 20.9 km/h 74 % 0 mm
05:19 10.3 °C 6.3 °C 1018.5 hPa SW 11.1 km/h 17.7 km/h 76 % 0 mm
05:24 10.4 °C 5.8 °C 1018.5 hPa SSE 9.7 km/h 17.7 km/h 73 % 0 mm
05:29 10.8 °C 6 °C 1018.5 hPa SW 17.7 km/h 17.7 km/h 72 % 0 mm
05:34 10.7 °C 6.1 °C 1018.5 hPa South 7.9 km/h 17.7 km/h 73 % 0 mm
05:39 10.6 °C 6 °C 1018.5 hPa SSW 13 km/h 17.7 km/h 73 % 0 mm
05:44 10.4 °C 6 °C 1018.5 hPa SSE 7.9 km/h 16.1 km/h 74 % 0 mm
05:49 10.3 °C 5.9 °C 1018.5 hPa SW 14.3 km/h 14.5 km/h 74 % 0 mm
05:54 10.6 °C 6 °C 1018.5 hPa SW 11.1 km/h 16.1 km/h 73 % 0 mm
05:59 10.7 °C 5.9 °C 1018.5 hPa SW 11.1 km/h 14.5 km/h 72 % 0 mm
06:04 10.7 °C 5.9 °C 1018.5 hPa SSW 14.3 km/h 17.7 km/h 72 % 0 mm
06:09 10.6 °C 5.8 °C 1018.5 hPa SW 7.9 km/h 16.1 km/h 72 % 0 mm
06:14 10.4 °C 5.8 °C 1018.5 hPa SW 11.1 km/h 17.7 km/h 73 % 0 mm
06:19 10.2 °C 5.8 °C 1018.5 hPa SW 11.1 km/h 14.5 km/h 74 % 0 mm
06:24 10.2 °C 5.6 °C 1018.8 hPa SW 11.1 km/h 17.7 km/h 73 % 0 mm
06:29 10.4 °C 5.6 °C 1018.8 hPa SSW 9.7 km/h 16.1 km/h 72 % 0 mm
06:34 10.9 °C 5.6 °C 1018.8 hPa SW 11.1 km/h 12.9 km/h 70 % 0 mm
06:39 11.1 °C 5.6 °C 1018.8 hPa SW 11.1 km/h 12.9 km/h 69 % 0 mm
06:44 11.2 °C 5.5 °C 1018.8 hPa SW 13 km/h 14.5 km/h 68 % 0 mm
06:49 11.5 °C 5.6 °C 1018.8 hPa SW 11.1 km/h 12.9 km/h 67 % 0 mm
06:54 11.6 °C 5.7 °C 1018.8 hPa SW 9.7 km/h 16.1 km/h 67 % 0 mm
06:59 11.6 °C 5.7 °C 1018.8 hPa SSW 11.1 km/h 14.5 km/h 67 % 0 mm
07:04 11.8 °C 5.7 °C 1018.8 hPa WSW 7.9 km/h 12.9 km/h 66 % 0 mm
07:09 12.2 °C 5.8 °C 1018.8 hPa SW 11.1 km/h 14.5 km/h 65 % 0 mm
07:14 12.7 °C 5.8 °C 1018.8 hPa SW 4.7 km/h 9.7 km/h 63 % 0 mm
07:19 12.8 °C 5.7 °C 1018.8 hPa SW 4.7 km/h 9.7 km/h 62 % 0 mm
07:24 13.2 °C 5.8 °C 1018.8 hPa SE 4.7 km/h 8 km/h 61 % 0 mm
07:29 13.5 °C 6.1 °C 1018.8 hPa SSE 4.7 km/h 8 km/h 61 % 0 mm
07:34 13.8 °C 6.2 °C 1018.8 hPa SSW 7.9 km/h 8 km/h 60 % 0 mm
07:39 14 °C 6.1 °C 1018.8 hPa SW 11.1 km/h 11.3 km/h 59 % 0 mm
07:44 14.1 °C 6 °C 1018.8 hPa SW 7.9 km/h 11.3 km/h 58 % 0 mm
07:49 14.5 °C 6.3 °C 1018.8 hPa SSW 4.7 km/h 8 km/h 58 % 0 mm
07:54 15 °C 6.5 °C 1018.8 hPa SW 3.2 km/h 8 km/h 57 % 0 mm
07:59 15.3 °C 6.6 °C 1018.8 hPa West 4.7 km/h 6.4 km/h 56 % 0 mm
08:04 15.7 °C 6.7 °C 1018.8 hPa SSW 3.2 km/h 4.8 km/h 55 % 0 mm
08:09 16.3 °C 7 °C 1018.8 hPa SSW 3.2 km/h 6.4 km/h 54 % 0 mm
08:14 17 °C 7.1 °C 1018.8 hPa SE 4.7 km/h 4.8 km/h 52 % 0 mm
08:19 17.8 °C 7.2 °C 1018.8 hPa Calm   3.2 km/h 50 % 0 mm
08:24 18.5 °C 7.3 °C 1018.8 hPa SW 3.2 km/h 4.8 km/h 48 % 0 mm
08:29 19.1 °C 8.4 °C 1018.8 hPa ENE 3.2 km/h 6.4 km/h 50 % 0 mm
08:34 19.6 °C 8.6 °C 1018.8 hPa ENE 1.4 km/h 3.2 km/h 49 % 0 mm
08:39 20.4 °C 8.1 °C 1018.8 hPa Calm   1.6 km/h 45 % 0 mm
08:44 20.8 °C 7.8 °C 1018.8 hPa Calm   1.6 km/h 43 % 0 mm
08:49 20.9 °C 7.2 °C 1018.5 hPa SW 1.4 km/h 3.2 km/h 41 % 0 mm
08:54 20.9 °C 7.2 °C 1018.5 hPa Calm   1.6 km/h 41 % 0 mm
08:59 21.6 °C 7.8 °C 1018.5 hPa Calm   4.8 km/h 41 % 0 mm
09:04 22.2 °C 8.3 °C 1018.5 hPa ENE 6.4 km/h 6.4 km/h 41 % 0 mm
09:09 22.4 °C 8.1 °C 1018.5 hPa ENE 4.7 km/h 8 km/h 40 % 0 mm
09:14 22.4 °C 7.8 °C 1018.2 hPa ENE 3.2 km/h 8 km/h 39 % 0 mm
09:19 22.2 °C 7.2 °C 1018.5 hPa East 4.7 km/h 11.3 km/h 38 % 0 mm
09:24 22.2 °C 7.6 °C 1018.2 hPa NNE 6.4 km/h 11.3 km/h 39 % 0 mm
09:29 22.5 °C 7.5 °C 1018.2 hPa NE 4.7 km/h 12.9 km/h 38 % 0 mm
09:34 22.3 °C 8 °C 1018.2 hPa ENE 7.9 km/h 16.1 km/h 40 % 0 mm
09:39 22.5 °C 8.2 °C 1018.2 hPa ENE 7.9 km/h 11.3 km/h 40 % 0 mm
09:44 22.6 °C 7.9 °C 1018.2 hPa ENE 11.1 km/h 17.7 km/h 39 % 0 mm
09:49 22.8 °C 8.1 °C 1018.2 hPa NE 11.1 km/h 12.9 km/h 39 % 0 mm
09:54 23 °C 7.9 °C 1018.2 hPa NE 14.3 km/h 17.7 km/h 38 % 0 mm
09:59 22.8 °C 8.1 °C 1018.2 hPa ENE 6.4 km/h 12.9 km/h 39 % 0 mm
10:04 23.3 °C 8.2 °C 1018.2 hPa NNE 14.3 km/h 19.3 km/h 38 % 0 mm
10:09 23.1 °C 8.4 °C 1017.8 hPa NE 9.7 km/h 20.9 km/h 39 % 0 mm
10:14 23.6 °C 8.8 °C 1017.8 hPa East 7.9 km/h 22.5 km/h 39 % 0 mm
10:19 23.7 °C 8.9 °C 1017.8 hPa ENE 16.3 km/h 20.9 km/h 39 % 0 mm
10:24 23.6 °C 8.4 °C 1017.8 hPa ENE 20.9 km/h 22.5 km/h 38 % 0 mm
10:29 23.6 °C 8.8 °C 1017.8 hPa East 9.7 km/h 17.7 km/h 39 % 0 mm
10:34 23.8 °C 7.8 °C 1017.8 hPa ENE 25.9 km/h 29 km/h 36 % 0 mm
10:39 23.4 °C 7.9 °C 1017.8 hPa ENE 22.7 km/h 25.7 km/h 37 % 0 mm
10:44 23.3 °C 7 °C 1017.8 hPa ENE 14.3 km/h 27.4 km/h 35 % 0 mm
10:49 23.2 °C 7.3 °C 1017.8 hPa ENE 19.5 km/h 27.4 km/h 36 % 0 mm
10:54 23.3 °C 7.8 °C 1017.5 hPa ENE 13 km/h 24.1 km/h 37 % 0 mm
10:59 23.2 °C 6.5 °C 1017.8 hPa NE 20.9 km/h 38.6 km/h 34 % 0 mm
11:04 23.2 °C 7.3 °C 1017.5 hPa ENE 28.8 km/h 32.2 km/h 36 % 0 mm
11:09 23 °C 7.5 °C 1017.5 hPa ENE 27.4 km/h 33.8 km/h 37 % 0 mm
11:14 22.8 °C 6.9 °C 1017.5 hPa NE 17.7 km/h 32.2 km/h 36 % 0 mm
11:19 22.9 °C 7.8 °C 1017.5 hPa East 24.1 km/h 37 km/h 38 % 0 mm
11:24 22.9 °C 7.4 °C 1017.5 hPa ENE 25.9 km/h 32.2 km/h 37 % 0 mm
11:29 23.6 °C 7.7 °C 1017.2 hPa ENE 11.1 km/h 17.7 km/h 36 % 0 mm
11:34 23.5 °C 6.7 °C 1017.2 hPa ENE 20.9 km/h 32.2 km/h 34 % 0 mm
11:39 23.7 °C 7.7 °C 1017.2 hPa NE 11.1 km/h 19.3 km/h 36 % 0 mm
11:44 24.7 °C 7.8 °C 1017.2 hPa ENE 19.5 km/h 25.7 km/h 34 % 0 mm
11:49 24.7 °C 6.9 °C 1017.2 hPa NE 16.3 km/h 19.3 km/h 32 % 0 mm
11:54 24.4 °C 7.1 °C 1017.2 hPa ENE 14.3 km/h 16.1 km/h 33 % 0 mm
11:59 23.9 °C 7.1 °C 1017.2 hPa ENE 9.7 km/h 27.4 km/h 34 % 0 mm
12:04 24.6 °C 7.3 °C 1017.2 hPa NE 14.3 km/h 16.1 km/h 33 % 0 mm
12:09 24.5 °C 6.7 °C 1016.8 hPa ENE 13 km/h 29 km/h 32 % 0 mm
12:14 24.3 °C 7.4 °C 1017.2 hPa ENE 11.1 km/h 20.9 km/h 34 % 0 mm
12:19 24.9 °C 8 °C 1016.8 hPa ENE 17.7 km/h 25.7 km/h 34 % 0 mm
12:24 25 °C 7.6 °C 1016.8 hPa ENE 25.9 km/h 29 km/h 33 % 0 mm
12:29 24.1 °C 9.7 °C 1016.8 hPa ENE 33.8 km/h 35.4 km/h 40 % 0 mm
12:34 23.1 °C 8.8 °C 1017.2 hPa NE 19.5 km/h 27.4 km/h 40 % 0 mm
12:39 22.9 °C 9.3 °C 1016.8 hPa ENE 32 km/h 38.6 km/h 42 % 0 mm
12:44 22.8 °C 8.9 °C 1016.8 hPa ENE 14.3 km/h 29 km/h 41 % 0 mm
12:49 23.1 °C 9.1 °C 1016.8 hPa ENE 24.1 km/h 29 km/h 41 % 0 mm
12:54 23.2 °C 9.2 °C 1016.8 hPa NE 20.9 km/h 33.8 km/h 41 % 0 mm
12:59 23.5 °C 8.7 °C 1016.8 hPa ENE 6.4 km/h 16.1 km/h 39 % 0 mm
13:04 23.8 °C 9 °C 1016.8 hPa ENE 27.4 km/h 29 km/h 39 % 0 mm
13:09 24 °C 8.8 °C 1016.8 hPa East 19.5 km/h 24.1 km/h 38 % 0 mm
13:14 24.4 °C 8.8 °C 1016.8 hPa ENE 13 km/h 25.7 km/h 37 % 0 mm
13:19 24.1 °C 8.9 °C 1016.5 hPa NE 11.1 km/h 35.4 km/h 38 % 0 mm
13:24 23.7 °C 8.9 °C 1016.5 hPa East 16.3 km/h 19.3 km/h 39 % 0 mm
13:29 24.1 °C 8.5 °C 1016.5 hPa ENE 16.3 km/h 24.1 km/h 37 % 0 mm
13:34 24.4 °C 8.8 °C 1016.5 hPa East 16.3 km/h 19.3 km/h 37 % 0 mm
13:39 24.3 °C 8.7 °C 1016.5 hPa ENE 22.7 km/h 30.6 km/h 37 % 0 mm
13:44 24.6 °C 8.5 °C 1016.5 hPa ENE 20.9 km/h 27.4 km/h 36 % 0 mm
13:49 23.9 °C 7.9 °C 1016.5 hPa ENE 13 km/h 30.6 km/h 36 % 0 mm
13:54 24.1 °C 8.1 °C 1016.5 hPa North 14.3 km/h 24.1 km/h 36 % 0 mm
13:59 24.3 °C 7.4 °C 1016.1 hPa NE 11.1 km/h 25.7 km/h 34 % 0 mm
14:04 24.7 °C 7.8 °C 1016.5 hPa East 27.4 km/h 27.4 km/h 34 % 0 mm
14:09 24.9 °C 7.5 °C 1016.1 hPa ENE 14.3 km/h 22.5 km/h 33 % 0 mm
14:14 24.4 °C 7.5 °C 1016.1 hPa ENE 13 km/h 25.7 km/h 34 % 0 mm
14:19 24.3 °C 7.9 °C 1016.1 hPa ENE 17.7 km/h 20.9 km/h 35 % 0 mm
14:24 24.2 °C 8.2 °C 1016.1 hPa ENE 27.4 km/h 45.1 km/h 36 % 0 mm
14:29 24.1 °C 8.1 °C 1016.1 hPa ENE 22.7 km/h 33.8 km/h 36 % 0 mm
14:34 24.2 °C 8.2 °C 1016.1 hPa ENE 16.3 km/h 24.1 km/h 36 % 0 mm
14:39 24.2 °C 7.8 °C 1016.1 hPa ENE 11.1 km/h 25.7 km/h 35 % 0 mm
14:44 24.2 °C 7.8 °C 1016.1 hPa ENE 9.7 km/h 16.1 km/h 35 % 0 mm
14:49 24.7 °C 7.3 °C 1016.1 hPa NNE 20.9 km/h 30.6 km/h 33 % 0 mm
14:54 24.7 °C 7.3 °C 1016.1 hPa NE 16.3 km/h 22.5 km/h 33 % 0 mm
14:59 24.6 °C 7.3 °C 1016.1 hPa NE 6.4 km/h 9.7 km/h 33 % 0 mm
15:04 25.3 °C 8.3 °C 1016.1 hPa ENE 22.7 km/h 24.1 km/h 34 % 0 mm
15:09 25.1 °C 8.1 °C 1015.8 hPa ENE 13 km/h 17.7 km/h 34 % 0 mm
15:14 24.9 °C 7.5 °C 1015.8 hPa East 16.3 km/h 27.4 km/h 33 % 0 mm
15:19 25 °C 7.2 °C 1015.8 hPa ENE 17.7 km/h 30.6 km/h 32 % 0 mm
15:24 24.6 °C 6.8 °C 1015.8 hPa East 20.9 km/h 24.1 km/h 32 % 0 mm
15:29 24.9 °C 7.5 °C 1015.8 hPa ENE 13 km/h 25.7 km/h 33 % 0 mm
15:34 24.7 °C 7.3 °C 1016.1 hPa NE 9.7 km/h 14.5 km/h 33 % 0 mm
15:39 24.9 °C 7.1 °C 1015.8 hPa NE 17.7 km/h 19.3 km/h 32 % 0 mm
15:44 24.8 °C 7 °C 1015.8 hPa ENE 17.7 km/h 30.6 km/h 32 % 0 mm
15:49 24.6 °C 7.3 °C 1015.8 hPa ENE 20.9 km/h 24.1 km/h 33 % 0 mm
15:54 24.6 °C 6.3 °C 1015.8 hPa NNW 4.7 km/h 17.7 km/h 31 % 0 mm
15:59 24.8 °C 7.4 °C 1015.8 hPa NE 9.7 km/h 9.7 km/h 33 % 0 mm
16:04 25.1 °C 7.7 °C 1015.5 hPa ENE 9.7 km/h 29 km/h 33 % 0 mm
16:09 25.3 °C 7.9 °C 1015.8 hPa ENE 1.4 km/h 25.7 km/h 33 % 0 mm
16:14 25.1 °C 7.2 °C 1015.5 hPa NNE 22.7 km/h 27.4 km/h 32 % 0 mm
16:19 24.4 °C 6.6 °C 1015.5 hPa ENE 22.7 km/h 33.8 km/h 32 % 0 mm
16:24 24.6 °C 6.3 °C 1015.5 hPa ENE 27.4 km/h 30.6 km/h 31 % 0 mm
16:29 24.6 °C 5.9 °C 1015.5 hPa East 6.4 km/h 14.5 km/h 30 % 0 mm
16:34 24.8 °C 7 °C 1015.5 hPa ENE 13 km/h 24.1 km/h 32 % 0 mm
16:39 25.1 °C 6.8 °C 1015.5 hPa NE 22.7 km/h 30.6 km/h 31 % 0 mm
16:44 24.7 °C 6 °C 1015.5 hPa ENE 20.9 km/h 35.4 km/h 30 % 0 mm
16:49 24.9 °C 6.6 °C 1015.5 hPa ENE 16.3 km/h 29 km/h 31 % 0 mm
16:54 24.8 °C 7 °C 1015.8 hPa ENE 1.4 km/h 16.1 km/h 32 % 0 mm
16:59 25 °C 7.2 °C 1015.5 hPa NE 3.2 km/h 8 km/h 32 % 0 mm
17:04 24.9 °C 5.6 °C 1015.5 hPa NE 16.3 km/h 30.6 km/h 29 % 0 mm
17:09 24.6 °C 6.3 °C 1015.5 hPa North 6.4 km/h 17.7 km/h 31 % 0 mm
17:14 24.7 °C 6.9 °C 1015.5 hPa East 7.9 km/h 14.5 km/h 32 % 0 mm
17:19 25.1 °C 7.2 °C 1015.5 hPa NE 9.7 km/h 16.1 km/h 32 % 0 mm
17:24 25.1 °C 7.2 °C 1015.1 hPa ENE 19.5 km/h 30.6 km/h 32 % 0 mm
17:29 24.9 °C 7.1 °C 1015.5 hPa NE 20.9 km/h 24.1 km/h 32 % 0 mm
17:34 24.7 °C 7.3 °C 1015.5 hPa East 9.7 km/h 32.2 km/h 33 % 0 mm
17:39 24.5 °C 7.2 °C 1015.5 hPa NNE 14.3 km/h 22.5 km/h 33 % 0 mm
17:44 24.6 °C 7.3 °C 1015.5 hPa NNW 1.4 km/h 4.8 km/h 33 % 0 mm
17:49 24.8 °C 7.4 °C 1015.5 hPa East 14.3 km/h 20.9 km/h 33 % 0 mm
17:54 24.7 °C 7.8 °C 1015.5 hPa NE 20.9 km/h 33.8 km/h 34 % 0 mm
17:59 24.4 °C 7.9 °C 1015.5 hPa ENE 24.1 km/h 32.2 km/h 35 % 0 mm
18:04 24.4 °C 7.9 °C 1015.5 hPa ENE 20.9 km/h 29 km/h 35 % 0 mm
18:09 24.2 °C 7.8 °C 1015.5 hPa NE 11.1 km/h 30.6 km/h 35 % 0 mm
18:14 24.1 °C 7.7 °C 1015.5 hPa NE 9.7 km/h 27.4 km/h 35 % 0 mm
18:19 24.3 °C 7.4 °C 1015.5 hPa ENE 20.9 km/h 25.7 km/h 34 % 0 mm
18:24 24.5 °C 7.2 °C 1015.5 hPa NE 11.1 km/h 17.7 km/h 33 % 0 mm
18:29 24.3 °C 7.4 °C 1015.5 hPa ENE 17.7 km/h 20.9 km/h 34 % 0 mm
18:34 24.2 °C 7.3 °C 1015.5 hPa East 9.7 km/h 17.7 km/h 34 % 0 mm
18:39 24.3 °C 7.9 °C 1015.5 hPa North 7.9 km/h 20.9 km/h 35 % 0 mm
18:44 24.2 °C 7.8 °C 1015.5 hPa ENE 20.9 km/h 20.9 km/h 35 % 0 mm
18:49 24.1 °C 7.7 °C 1015.5 hPa ENE 13 km/h 17.7 km/h 35 % 0 mm
18:54 23.9 °C 7.5 °C 1015.5 hPa ENE 9.7 km/h 14.5 km/h 35 % 0 mm
18:59 23.7 °C 7.7 °C 1015.5 hPa ENE 28.8 km/h 29 km/h 36 % 0 mm
19:04 23.7 °C 7.7 °C 1015.5 hPa ENE 16.3 km/h 22.5 km/h 36 % 0 mm
19:09 23.7 °C 7.7 °C 1015.5 hPa NE 19.5 km/h 20.9 km/h 36 % 0 mm
19:14 23.6 °C 7.7 °C 1015.8 hPa ENE 7.9 km/h 20.9 km/h 36 % 0 mm
19:19 23.5 °C 7.6 °C 1015.5 hPa ENE 11.1 km/h 12.9 km/h 36 % 0 mm
19:24 23.4 °C 7.5 °C 1015.8 hPa NE 9.7 km/h 14.5 km/h 36 % 0 mm
19:29 23.4 °C 7.5 °C 1015.8 hPa ENE 11.1 km/h 14.5 km/h 36 % 0 mm
19:34 23.3 °C 7.4 °C 1015.8 hPa ENE 14.3 km/h 14.5 km/h 36 % 0 mm
19:39 23.2 °C 7.7 °C 1015.8 hPa ENE 9.7 km/h 14.5 km/h 37 % 0 mm
19:44 23.1 °C 7.6 °C 1015.8 hPa ENE 6.4 km/h 14.5 km/h 37 % 0 mm
19:49 22.9 °C 7.4 °C 1015.8 hPa ENE 9.7 km/h 12.9 km/h 37 % 0 mm
19:54 22.8 °C 7.3 °C 1015.8 hPa ENE 9.7 km/h 14.5 km/h 37 % 0 mm
19:59 22.7 °C 7.6 °C 1015.8 hPa ENE 11.1 km/h 12.9 km/h 38 % 0 mm
20:04 22.4 °C 7.8 °C 1015.8 hPa ENE 11.1 km/h 16.1 km/h 39 % 0 mm
20:09 22.3 °C 8 °C 1015.8 hPa ENE 11.1 km/h 14.5 km/h 40 % 0 mm
20:14 22.2 °C 8 °C 1015.8 hPa ENE 11.1 km/h 19.3 km/h 40 % 0 mm
20:19 22 °C 8.1 °C 1016.1 hPa ENE 11.1 km/h 19.3 km/h 41 % 0 mm
20:24 21.9 °C 8.4 °C 1016.1 hPa ENE 11.1 km/h 14.5 km/h 42 % 0 mm
20:29 21.7 °C 8.2 °C 1016.1 hPa ENE 9.7 km/h 9.7 km/h 42 % 0 mm
20:34 21.5 °C 8.4 °C 1016.1 hPa ENE 6.4 km/h 8 km/h 43 % 0 mm
20:39 21.3 °C 8.6 °C 1016.1 hPa East 7.9 km/h 8 km/h 44 % 0 mm
20:44 21.1 °C 8.7 °C 1016.1 hPa ENE 6.4 km/h 9.7 km/h 45 % 0 mm
20:49 20.7 °C 8.3 °C 1016.5 hPa ENE 3.2 km/h 6.4 km/h 45 % 0 mm
20:54 20.4 °C 8.4 °C 1016.5 hPa ENE 4.7 km/h 6.4 km/h 46 % 0 mm
20:59 20.4 °C 8.7 °C 1016.5 hPa ENE 6.4 km/h 11.3 km/h 47 % 0 mm
21:04 20.3 °C 8.9 °C 1016.8 hPa East 3.2 km/h 6.4 km/h 48 % 0 mm
21:09 20 °C 8.7 °C 1016.8 hPa East 1.4 km/h 3.2 km/h 48 % 0 mm
21:14 19.7 °C 8.1 °C 1016.8 hPa West 1.4 km/h 3.2 km/h 47 % 0 mm
21:19 19.4 °C 8.1 °C 1017.2 hPa West 1.4 km/h 1.6 km/h 48 % 0 mm
21:24 19 °C 8 °C 1017.2 hPa SSW 4.7 km/h 6.4 km/h 49 % 0 mm
21:29 19 °C 8.6 °C 1017.2 hPa West 1.4 km/h 1.6 km/h 51 % 0 mm
21:34 19.1 °C 9 °C 1017.2 hPa West 1.4 km/h 3.2 km/h 52 % 0 mm
21:39 19.1 °C 9 °C 1017.2 hPa North 4.7 km/h 4.8 km/h 52 % 0 mm
21:44 18.8 °C 7.9 °C 1017.5 hPa SE 14.3 km/h 14.5 km/h 49 % 0 mm
21:49 18.2 °C 7.6 °C 1017.5 hPa SSE 11.1 km/h 11.3 km/h 50 % 0 mm
21:54 17.9 °C 7.6 °C 1017.5 hPa SSE 14.3 km/h 17.7 km/h 51 % 0 mm
21:59 17.5 °C 7.5 °C 1017.5 hPa SE 14.3 km/h 14.5 km/h 52 % 0 mm
22:04 17.1 °C 7.4 °C 1017.5 hPa SSE 13 km/h 16.1 km/h 53 % 0 mm
22:09 16.8 °C 7.4 °C 1017.5 hPa SSE 16.3 km/h 17.7 km/h 54 % 0 mm
22:14 16.7 °C 7.6 °C 1017.5 hPa SSW 13 km/h 14.5 km/h 55 % 0 mm
22:19 16.7 °C 7.6 °C 1017.5 hPa East 11.1 km/h 12.9 km/h 55 % 0 mm
22:24 16.7 °C 7.6 °C 1017.5 hPa SW 11.1 km/h 14.5 km/h 55 % 0 mm
22:29 16.4 °C 7.3 °C 1017.5 hPa SW 11.1 km/h 12.9 km/h 55 % 0 mm
22:34 16.2 °C 7.4 °C 1017.5 hPa SE 9.7 km/h 16.1 km/h 56 % 0 mm
22:39 15.9 °C 7.4 °C 1017.5 hPa SSW 6.4 km/h 16.1 km/h 57 % 0 mm
22:44 15.8 °C 7.3 °C 1017.5 hPa South 11.1 km/h 16.1 km/h 57 % 0 mm
22:49 15.6 °C 7.4 °C 1017.5 hPa South 9.7 km/h 14.5 km/h 58 % 0 mm
22:54 15.7 °C 7.2 °C 1017.5 hPa SSW 13 km/h 14.5 km/h 57 % 0 mm
22:59 15.8 °C 7.3 °C 1017.5 hPa SSW 17.7 km/h 17.7 km/h 57 % 0 mm
23:04 15.7 °C 7.2 °C 1017.5 hPa SSE 9.7 km/h 16.1 km/h 57 % 0 mm
23:09 15.6 °C 7.4 °C 1017.5 hPa SSW 13 km/h 14.5 km/h 58 % 0 mm
23:14 15.6 °C 7.6 °C 1017.5 hPa SW 13 km/h 16.1 km/h 59 % 0 mm
23:19 15.6 °C 7.4 °C 1017.5 hPa South 4.7 km/h 12.9 km/h 58 % 0 mm
23:24 15.6 °C 7.4 °C 1017.5 hPa South 6.4 km/h 14.5 km/h 58 % 0 mm
23:29 15.6 °C 7.4 °C 1017.5 hPa SSW 9.7 km/h 12.9 km/h 58 % 0 mm
23:34 15.6 °C 7.4 °C 1017.5 hPa SW 7.9 km/h 9.7 km/h 58 % 0 mm
23:39 15.4 °C 7.4 °C 1017.2 hPa SSW 4.7 km/h 12.9 km/h 59 % 0 mm
23:44 15.2 °C 7.5 °C 1017.2 hPa SSE 6.4 km/h 14.5 km/h 60 % 0 mm
23:49 15.3 °C 7.3 °C 1017.2 hPa SW 7.9 km/h 9.7 km/h 59 % 0 mm
23:54 15.1 °C 7.1 °C 1017.2 hPa SW 13 km/h 14.5 km/h 59 % 0 mm
23:59 15 °C 7.3 °C 1017.2 hPa SW 7.9 km/h 16.1 km/h 60 % 0 mm
Evergreen Colorado, USA
Compliments of Weather Underground - 3.5 mb